Time;durP1;ratioP1;P1;durP2;ratioP2;P2;SDS_P1;SDS_P2;PMS_P1;PMS_P2;Temp;Humidity;BMP_temperature;BMP_pressure;BME280_temperature;BME280_humidity;BME280_pressure;Samples;Min_cycle;Max_cycle;Signal;HPM_P1;HPM_P2
2023/07/16 00:02:07;;;;;;;;;;;;;;;16.65;61.71;99283.00;5084716;28;5297;-77
2023/07/16 00:04:34;;;;;;;;;;;;;;;16.73;61.68;99291.31;5084457;28;5775;-77
2023/07/16 00:07:00;;;;;;;;;;;;;;;16.83;61.31;99297.78;5084062;28;5284;-78
2023/07/16 00:09:27;;;;;;;;;;;;;;;16.71;61.57;99298.19;5086120;28;5375;-77
2023/07/16 00:11:53;;;;;;;;;;;;;;;16.23;61.76;99228.31;5101151;27;6163;-76
2023/07/16 00:14:20;;;;;;;;;;;;;;;16.66;61.97;99290.88;5065040;28;5339;-77
2023/07/16 00:16:46;;;;;;;;;;;;;;;16.29;61.62;99227.16;5084783;28;6375;-77
2023/07/16 00:19:13;;;;;;;;;;;;;;;16.65;61.85;99277.56;5067615;28;6225;-75
2023/07/16 00:21:40;;;;;;;;;;;;;;;16.74;61.64;99265.78;5084327;28;5497;-77
2023/07/16 00:24:06;;;;;;;;;;;;;;;16.75;61.39;99270.09;5088782;27;5864;-77
2023/07/16 00:26:33;;;;;;;;;;;;;;;16.73;61.66;99266.06;5087544;27;5347;-77
2023/07/16 00:28:59;;;;;;;;;;;;;;;16.68;61.79;99257.97;5071669;27;5955;-76
2023/07/16 00:31:26;;;;;;;;;;;;;;;16.65;61.76;99267.53;5097796;27;5724;-77
2023/07/16 00:33:52;;;;;;;;;;;;;;;16.71;61.58;99277.22;5082034;27;5436;-78
2023/07/16 00:36:19;;;;;;;;;;;;;;;16.76;61.57;99285.34;5070749;27;6185;-78
2023/07/16 00:38:45;;;;;;;;;;;;;;;16.70;61.64;99296.53;5085452;27;5920;-78
2023/07/16 00:41:12;;;;;;;;;;;;;;;16.78;61.34;99304.88;5086653;27;5794;-78
2023/07/16 00:43:38;;;;;;;;;;;;;;;16.78;61.36;99306.81;5091160;27;6326;-78
2023/07/16 00:46:05;;;;;;;;;;;;;;;16.71;61.60;99296.25;5086737;27;5361;-78
2023/07/16 00:48:33;;;;;;;;;;;;;;;16.63;61.89;99301.53;5067411;28;5277;-78
2023/07/16 00:51:00;;;;;;;;;;;;;;;16.63;61.76;99328.72;5067497;28;5302;-77
2023/07/16 00:53:26;;;;;;;;;;;;;;;16.61;61.86;99345.28;5087660;27;5247;-78
2023/07/16 00:55:53;;;;;;;;;;;;;;;16.85;61.14;99364.34;5069863;28;5650;-77
2023/07/16 00:58:19;;;;;;;;;;;;;;;16.66;61.71;99347.16;5089815;27;5449;-76
2023/07/16 01:00:46;;;;;;;;;;;;;;;16.72;61.77;99333.22;5085125;27;5267;-79
2023/07/16 01:03:12;;;;;;;;;;;;;;;16.69;61.62;99319.41;5089632;27;5544;-77
2023/07/16 01:05:39;;;;;;;;;;;;;;;16.57;61.93;99289.91;5087370;27;5627;-75
2023/07/16 01:08:06;;;;;;;;;;;;;;;16.63;61.88;99290.66;5070116;28;6577;-77
2023/07/16 01:10:32;;;;;;;;;;;;;;;16.68;61.66;99266.94;5097943;27;5580;-75
2023/07/16 01:12:59;;;;;;;;;;;;;;;16.65;61.68;99280.28;5098724;28;6324;-78
2023/07/16 01:15:25;;;;;;;;;;;;;;;16.70;61.63;99253.84;5079880;28;6094;-75
2023/07/16 01:17:52;;;;;;;;;;;;;;;16.65;61.84;99251.22;5077891;28;5513;-77
2023/07/16 01:20:18;;;;;;;;;;;;;;;16.74;61.43;99232.34;5098274;28;6366;-76
2023/07/16 01:22:45;;;;;;;;;;;;;;;16.69;61.62;99199.78;5097472;28;5931;-77
2023/07/16 01:25:11;;;;;;;;;;;;;;;16.75;61.38;99195.91;5079040;28;5727;-76
2023/07/16 01:27:38;;;;;;;;;;;;;;;16.93;60.66;99199.75;5098580;27;6250;-77
2023/07/16 01:30:04;;;;;;;;;;;;;;;16.88;60.98;99202.53;5095570;27;5354;-76
2023/07/16 01:32:31;;;;;;;;;;;;;;;16.86;60.85;99215.63;5078809;28;5345;-77
2023/07/16 01:34:58;;;;;;;;;;;;;;;16.70;61.29;99202.19;5096313;28;5363;-77
2023/07/16 01:37:24;;;;;;;;;;;;;;;16.85;60.92;99178.66;5098363;27;5993;-77
2023/07/16 01:39:51;;;;;;;;;;;;;;;16.70;61.38;99169.56;5097580;27;5975;-78
2023/07/16 01:42:17;;;;;;;;;;;;;;;16.66;61.57;99178.63;5064712;28;5309;-79
2023/07/16 01:44:44;;;;;;;;;;;;;;;16.85;61.09;99186.81;5090285;27;6223;-79
2023/07/16 01:47:10;;;;;;;;;;;;;;;16.73;61.25;99189.94;5081179;27;5861;-77
2023/07/16 01:49:37;;;;;;;;;;;;;;;16.61;61.70;99195.81;5085193;27;5355;-79
2023/07/16 01:52:03;;;;;;;;;;;;;;;16.61;61.74;99187.66;5084066;27;5177;-77
2023/07/16 01:54:30;;;;;;;;;;;;;;;16.74;61.33;99181.50;5080303;27;5226;-77
2023/07/16 01:56:57;;;;;;;;;;;;;;;16.74;61.17;99181.50;5073398;28;5194;-77
2023/07/16 01:59:23;;;;;;;;;;;;;;;16.98;60.81;99178.72;5069069;28;5428;-79
2023/07/16 02:01:50;;;;;;;;;;;;;;;16.86;61.08;99174.84;5087405;27;5321;-74
2023/07/16 02:04:16;;;;;;;;;;;;;;;16.84;60.83;99177.03;5084506;27;6014;-76
2023/07/16 02:06:43;;;;;;;;;;;;;;;16.70;61.34;99183.16;5084335;27;5218;-75
2023/07/16 02:09:09;;;;;;;;;;;;;;;16.91;60.85;99193.78;5083545;27;5305;-75
2023/07/16 02:11:36;;;;;;;;;;;;;;;17.06;60.15;99190.03;5086114;27;5496;-75
2023/07/16 02:14:02;;;;;;;;;;;;;;;16.91;60.69;99202.78;5068292;28;5542;-76
2023/07/16 02:16:29;;;;;;;;;;;;;;;17.16;59.70;99201.56;5086538;27;5402;-76
2023/07/16 02:18:55;;;;;;;;;;;;;;;17.09;59.93;99176.66;5084788;27;5798;-78
2023/07/16 02:21:22;;;;;;;;;;;;;;;16.67;61.49;99172.88;5090941;27;5227;-75
2023/07/16 02:23:49;;;;;;;;;;;;;;;16.93;60.67;99178.00;5089037;27;5275;-77
2023/07/16 02:26:15;;;;;;;;;;;;;;;17.16;59.65;99171.66;5086189;27;5370;-76
2023/07/16 02:28:42;;;;;;;;;;;;;;;17.07;60.23;99170.72;5087614;27;6279;-77
2023/07/16 02:31:08;;;;;;;;;;;;;;;16.89;60.65;99164.19;5105044;27;5613;-77
2023/07/16 02:33:35;;;;;;;;;;;;;;;17.00;60.39;99171.09;5083309;27;5544;-76
2023/07/16 02:36:02;;;;;;;;;;;;;;;17.29;59.31;99178.22;5068779;28;5288;-75
2023/07/16 02:38:28;;;;;;;;;;;;;;;17.31;59.27;99159.69;5085421;28;5322;-76
2023/07/16 02:40:55;;;;;;;;;;;;;;;17.33;59.14;99173.84;5086609;27;5548;-80
2023/07/16 02:43:22;;;;;;;;;;;;;;;17.22;59.71;99180.53;5084693;27;5324;-76
2023/07/16 02:45:48;;;;;;;;;;;;;;;17.34;59.25;99190.97;5086077;28;5187;-76
2023/07/16 02:48:15;;;;;;;;;;;;;;;17.40;59.14;99187.84;5065482;27;5871;-75
2023/07/16 02:50:42;;;;;;;;;;;;;;;17.37;59.04;99190.38;5065824;28;5270;-77
2023/07/16 02:53:08;;;;;;;;;;;;;;;17.15;59.56;99185.56;5084031;27;6195;-78
2023/07/16 02:55:35;;;;;;;;;;;;;;;17.28;59.44;99181.25;5100268;27;5906;-78
2023/07/16 02:58:04;;;;;;;;;;;;;;;17.18;59.56;99149.59;5062679;27;5967;-77
2023/07/16 03:00:30;;;;;;;;;;;;;;;17.28;59.33;99143.19;5083543;28;5621;-77
2023/07/16 03:02:58;;;;;;;;;;;;;;;17.08;59.86;99171.50;5065706;28;6191;-76
2023/07/16 03:05:24;;;;;;;;;;;;;;;17.12;59.90;99177.97;5089436;27;5705;-75
2023/07/16 03:07:51;;;;;;;;;;;;;;;17.34;59.22;99199.91;5086789;28;5199;-77
2023/07/16 03:10:17;;;;;;;;;;;;;;;17.34;58.96;99204.56;5055423;28;5515;-76
2023/07/16 03:12:44;;;;;;;;;;;;;;;17.33;59.18;99198.31;5054562;28;5154;-78
2023/07/16 03:15:10;;;;;;;;;;;;;;;17.30;58.94;99187.22;5055059;28;5240;-75
2023/07/16 03:17:37;;;;;;;;;;;;;;;17.03;60.01;99186.00;5027931;28;5375;-78
2023/07/16 03:20:05;;;;;;;;;;;;;;;17.22;59.39;99175.91;5042038;28;5566;-78
2023/07/16 03:22:31;;;;;;;;;;;;;;;17.48;58.71;99183.66;5048848;28;5203;-75
2023/07/16 03:24:58;;;;;;;;;;;;;;;17.47;58.50;99199.19;5043237;28;5536;-76
2023/07/16 03:27:24;;;;;;;;;;;;;;;17.31;58.98;99176.03;5057785;28;5394;-78
2023/07/16 03:29:51;;;;;;;;;;;;;;;17.43;58.93;99179.09;5040974;28;5603;-77
2023/07/16 03:32:18;;;;;;;;;;;;;;;17.17;59.48;99175.97;5049627;28;5340;-77
2023/07/16 03:34:44;;;;;;;;;;;;;;;16.99;59.91;99198.56;5046439;28;5075;-76
2023/07/16 03:37:11;;;;;;;;;;;;;;;17.33;58.88;99228.25;5060770;28;5328;-77
2023/07/16 03:39:37;;;;;;;;;;;;;;;17.30;59.22;99230.75;5045082;28;5286;-76
2023/07/16 03:42:04;;;;;;;;;;;;;;;17.03;58.77;99186.81;5049700;28;6034;-77
2023/07/16 03:44:30;;;;;;;;;;;;;;;17.37;59.07;99240.16;5028528;28;5186;-77
2023/07/16 03:46:57;;;;;;;;;;;;;;;17.38;58.72;99238.22;5045664;28;5395;-76
2023/07/16 03:49:23;;;;;;;;;;;;;;;16.86;59.03;99170.22;5057484;28;6182;-79
2023/07/16 03:51:50;;;;;;;;;;;;;;;17.36;59.08;99238.53;5022454;28;5212;-75
2023/07/16 03:54:16;;;;;;;;;;;;;;;17.10;59.68;99234.59;5043114;28;5716;-76
2023/07/16 03:56:43;;;;;;;;;;;;;;;17.57;58.14;99222.69;5048219;28;5613;-75
2023/07/16 03:59:09;;;;;;;;;;;;;;;17.40;58.58;99227.88;5048423;28;5537;-76
2023/07/16 04:01:36;;;;;;;;;;;;;;;17.60;58.08;99213.13;5052007;28;6064;-76
2023/07/16 04:04:02;;;;;;;;;;;;;;;17.28;59.00;99209.28;5049702;28;6259;-77
2023/07/16 04:06:29;;;;;;;;;;;;;;;17.34;59.12;99201.84;5040118;28;5746;-76
2023/07/16 04:08:56;;;;;;;;;;;;;;;17.29;58.89;99186.41;5051257;28;5288;-76
2023/07/16 04:11:22;;;;;;;;;;;;;;;17.41;58.53;99194.09;5028755;28;5477;-76
2023/07/16 04:14:14;;;;;;;;;;;;;;;17.31;58.77;99195.06;5055222;28;5379;-75
2023/07/16 04:17:06;;;;;;;;;;;;;;;17.46;58.40;99204.91;5048048;28;5658;-80
2023/07/16 04:19:58;;;;;;;;;;;;;;;17.56;58.08;99217.53;5048333;28;5293;-77
2023/07/16 04:22:50;;;;;;;;;;;;;;;17.41;58.77;99230.31;5054356;28;6244;-77
2023/07/16 04:25:42;;;;;;;;;;;;;;;17.09;59.64;99211.19;5050388;28;6425;-75
2023/07/16 04:28:34;;;;;;;;;;;;;;;17.17;59.29;99221.41;5051529;28;5555;-75
2023/07/16 04:31:21;;;;;;;;;;;;;;;17.51;58.34;99225.78;5047618;28;5375;-77
2023/07/16 04:34:13;;;;;;;;;;;;;;;17.51;58.28;99236.69;5050746;28;5262;-76
2023/07/16 04:37:05;;;;;;;;;;;;;;;17.35;58.72;99233.38;5049932;28;5114;-76
2023/07/16 04:39:33;;;;;;;;;;;;;;;17.32;58.82;99231.25;5051687;28;5274;-76
2023/07/16 04:41:59;;;;;;;;;;;;;;;17.31;58.91;99227.72;5047086;28;6180;-78
2023/07/16 04:44:26;;;;;;;;;;;;;;;17.51;58.29;99229.31;5050543;28;5682;-78
2023/07/16 04:46:52;;;;;;;;;;;;;;;17.44;58.35;99218.81;5043454;28;5605;-77
2023/07/16 04:49:19;;;;;;;;;;;;;;;17.51;58.38;99217.63;5057003;28;5018;-75
2023/07/16 04:51:45;;;;;;;;;;;;;;;17.49;58.38;99207.03;5046034;28;5557;-78
2023/07/16 04:54:12;;;;;;;;;;;;;;;17.31;58.83;99208.69;5048495;28;5544;-78
2023/07/16 04:56:38;;;;;;;;;;;;;;;17.23;59.17;99207.44;5049361;28;5128;-77
2023/07/16 04:59:05;;;;;;;;;;;;;;;17.44;58.55;99210.66;5047512;28;6014;-78
2023/07/16 05:01:31;;;;;;;;;;;;;;;17.45;58.42;99214.97;5053304;28;5368;-77
2023/07/16 05:03:58;;;;;;;;;;;;;;;17.25;58.73;99210.66;5050657;28;5230;-76
2023/07/16 05:06:25;;;;;;;;;;;;;;;17.22;59.06;99207.75;5050080;28;5056;-77
2023/07/16 05:08:51;;;;;;;;;;;;;;;17.22;59.06;99203.09;5060805;28;5309;-77
2023/07/16 05:11:18;;;;;;;;;;;;;;;17.27;59.08;99210.41;5067146;28;6517;-77
2023/07/16 05:13:44;;;;;;;;;;;;;;;17.21;59.16;99219.75;5079449;28;5361;-76
2023/07/16 05:16:11;;;;;;;;;;;;;;;17.22;59.21;99226.78;5077260;28;5355;-76
2023/07/16 05:18:37;;;;;;;;;;;;;;;17.56;58.09;99228.41;5076125;28;5323;-76
2023/07/16 05:21:10;;;;;;;;;;;;;;;17.03;59.54;99219.47;5059734;28;5453;-77
2023/07/16 05:23:37;;;;;;;;;;;;;;;17.21;59.13;99220.53;5078503;28;5793;-77
2023/07/16 05:26:03;;;;;;;;;;;;;;;17.12;59.34;99233.19;5060495;28;5349;-75
2023/07/16 05:28:30;;;;;;;;;;;;;;;17.18;59.09;99223.06;5078533;28;5418;-76
2023/07/16 05:30:56;;;;;;;;;;;;;;;17.33;58.71;99236.41;5078160;28;5411;-76
2023/07/16 05:33:23;;;;;;;;;;;;;;;17.00;59.89;99241.81;5079678;28;5320;-77
2023/07/16 05:35:50;;;;;;;;;;;;;;;16.77;59.01;99172.78;5086780;28;5369;-76
2023/07/16 05:38:16;;;;;;;;;;;;;;;17.14;59.42;99247.28;5079440;28;5325;-77
2023/07/16 05:40:43;;;;;;;;;;;;;;;17.12;59.24;99225.03;5058213;28;5326;-79
2023/07/16 05:43:09;;;;;;;;;;;;;;;17.30;58.83;99222.59;5064707;28;5030;-77
2023/07/16 05:45:36;;;;;;;;;;;;;;;17.10;59.47;99229.97;5079320;28;6237;-78
2023/07/16 05:48:03;;;;;;;;;;;;;;;17.34;58.76;99227.13;5074377;28;5335;-79
2023/07/16 05:50:30;;;;;;;;;;;;;;;16.73;60.48;99222.56;5080192;28;5199;-79
2023/07/16 05:52:56;;;;;;;;;;;;;;;17.05;59.70;99213.69;5079014;28;5371;-77
2023/07/16 05:55:23;;;;;;;;;;;;;;;17.27;59.00;99201.44;5078274;28;5228;-78
2023/07/16 05:57:49;;;;;;;;;;;;;;;17.14;59.27;99206.50;5080005;28;5220;-78
2023/07/16 06:00:16;;;;;;;;;;;;;;;17.38;58.60;99190.06;5077886;28;5173;-78
2023/07/16 06:02:42;;;;;;;;;;;;;;;17.10;59.41;99183.72;5069427;28;5137;-79
2023/07/16 06:05:09;;;;;;;;;;;;;;;16.87;60.03;99187.34;5078673;28;5201;-79
2023/07/16 06:07:35;;;;;;;;;;;;;;;16.85;60.19;99189.53;5074298;28;5202;-77
2023/07/16 06:10:02;;;;;;;;;;;;;;;17.02;59.66;99198.78;5079214;28;5469;-78
2023/07/16 06:12:29;;;;;;;;;;;;;;;17.11;59.26;99212.53;5080390;28;5474;-79
2023/07/16 06:14:55;;;;;;;;;;;;;;;17.15;59.32;99226.38;5063631;28;5385;-77
2023/07/16 06:17:22;;;;;;;;;;;;;;;17.15;59.17;99239.97;5081636;28;5308;-78
2023/07/16 06:19:50;;;;;;;;;;;;;;;16.99;59.60;99240.16;5078770;28;5314;-78
2023/07/16 06:22:17;;;;;;;;;;;;;;;16.87;60.08;99233.56;5077960;28;5395;-76
2023/07/16 06:24:43;;;;;;;;;;;;;;;17.03;59.65;99232.25;5076556;28;5344;-76
2023/07/16 06:27:10;;;;;;;;;;;;;;;16.74;60.43;99221.47;5076575;28;5329;-76
2023/07/16 06:29:37;;;;;;;;;;;;;;;16.68;60.66;99228.09;5073505;28;6111;-75
2023/07/16 06:32:05;;;;;;;;;;;;;;;16.48;61.37;99224.50;5075455;28;6460;-76
2023/07/16 06:34:32;;;;;;;;;;;;;;;16.69;60.71;99216.09;5071068;28;5504;-77
2023/07/16 06:36:58;;;;;;;;;;;;;;;16.79;60.32;99218.69;5078676;28;5459;-75
2023/07/16 06:39:25;;;;;;;;;;;;;;;16.60;60.96;99226.81;5075943;28;5322;-76
2023/07/16 06:41:51;;;;;;;;;;;;;;;16.72;60.63;99212.78;5059424;28;6344;-76
2023/07/16 06:44:18;;;;;;;;;;;;;;;16.56;61.29;99214.91;5079796;28;5187;-76
2023/07/16 06:46:45;;;;;;;;;;;;;;;16.69;60.72;99219.63;5076563;28;5331;-78
2023/07/16 06:49:11;;;;;;;;;;;;;;;16.65;60.86;99201.47;5078772;28;5335;-79
2023/07/16 06:51:38;;;;;;;;;;;;;;;16.85;60.13;99200.41;5078303;28;5479;-75
2023/07/16 06:54:04;;;;;;;;;;;;;;;16.54;61.23;99198.09;5081298;28;5293;-78
2023/07/16 06:56:31;;;;;;;;;;;;;;;16.48;61.58;99185.66;5078224;28;5093;-77
2023/07/16 06:58:57;;;;;;;;;;;;;;;16.54;61.27;99184.50;5077609;28;5264;-77
2023/07/16 07:01:24;;;;;;;;;;;;;;;16.44;61.62;99181.91;5081413;28;5284;-77
2023/07/16 07:03:51;;;;;;;;;;;;;;;16.34;61.95;99194.50;5076585;28;5169;-77
2023/07/16 07:06:17;;;;;;;;;;;;;;;16.32;62.06;99195.91;5079918;28;5297;-79
2023/07/16 07:08:44;;;;;;;;;;;;;;;16.31;61.90;99194.28;5078178;28;5363;-78
2023/07/16 07:11:11;;;;;;;;;;;;;;;16.33;62.00;99195.63;5080238;28;5403;-79
2023/07/16 07:13:37;;;;;;;;;;;;;;;16.28;62.12;99187.53;5058410;28;5451;-79
2023/07/16 07:16:04;;;;;;;;;;;;;;;16.28;62.19;99187.53;5059977;28;5262;-79
2023/07/16 07:18:30;;;;;;;;;;;;;;;16.28;62.18;99182.09;5062883;28;5511;-78
2023/07/16 07:20:57;;;;;;;;;;;;;;;16.27;62.21;99180.50;5076412;28;5553;-79
2023/07/16 07:23:23;;;;;;;;;;;;;;;16.30;62.19;99184.53;5079581;28;5134;-78
2023/07/16 07:25:51;;;;;;;;;;;;;;;16.30;62.17;99170.94;5082058;28;5057;-79
2023/07/16 07:28:17;;;;;;;;;;;;;;;16.29;62.26;99175.56;5081731;28;5217;-76
2023/07/16 07:30:47;;;;;;;;;;;;;;;16.30;62.25;99179.09;5078166;28;4842;-79
2023/07/16 07:33:13;;;;;;;;;;;;;;;16.27;62.26;99172.34;5078690;28;5128;-81
2023/07/16 07:35:40;;;;;;;;;;;;;;;16.27;62.31;99163.38;5063692;28;5697;-78
2023/07/16 07:38:07;;;;;;;;;;;;;;;16.28;62.29;99167.72;5082361;28;5085;-80
2023/07/16 07:40:33;;;;;;;;;;;;;;;16.29;62.24;99166.59;5079026;28;5019;-80
2023/07/16 07:43:00;;;;;;;;;;;;;;;16.28;62.35;99168.50;5080054;28;5222;-79
2023/07/16 07:45:27;;;;;;;;;;;;;;;16.28;62.31;99168.50;5068672;28;5173;-78
2023/07/16 07:47:53;;;;;;;;;;;;;;;16.29;62.23;99158.44;5082631;28;5180;-79
2023/07/16 07:50:20;;;;;;;;;;;;;;;16.29;62.25;99156.53;5078796;28;5161;-80
2023/07/16 07:52:46;;;;;;;;;;;;;;;16.29;62.31;99144.88;5077823;28;5253;-80
2023/07/16 07:55:13;;;;;;;;;;;;;;;16.29;62.33;99156.53;5079718;28;5355;-80
2023/07/16 07:57:39;;;;;;;;;;;;;;;16.29;62.33;99139.44;5079589;28;5183;-81
2023/07/16 08:00:10;;;;;;;;;;;;;;;16.31;62.29;99157.06;5081274;28;5204;-77
2023/07/16 08:02:43;;;;;;;;;;;;;;;16.31;62.40;99156.25;5060639;28;5125;-83
2023/07/16 08:05:09;;;;;;;;;;;;;;;16.33;62.25;99154.88;5082385;28;5083;-84
2023/07/16 08:07:36;;;;;;;;;;;;;;;16.32;62.06;99161.41;5063495;28;5305;-78
2023/07/16 08:10:03;;;;;;;;;;;;;;;16.31;62.39;99167.13;5081269;28;5216;-81
2023/07/16 08:12:30;;;;;;;;;;;;;;;16.32;62.34;99147.00;5084882;28;5320;-85
2023/07/16 08:14:58;;;;;;;;;;;;;;;16.33;62.37;99144.00;5062220;28;5142;-82
2023/07/16 08:17:24;;;;;;;;;;;;;;;16.35;62.26;99143.69;5074441;28;4664;-84
2023/07/16 08:19:51;;;;;;;;;;;;;;;16.34;62.27;99148.31;5082107;28;4833;-80
2023/07/16 08:22:17;;;;;;;;;;;;;;;16.35;62.36;99140.97;5083873;28;5208;-84
2023/07/16 08:24:44;;;;;;;;;;;;;;;16.33;62.35;99141.28;5083021;28;5054;-82
2023/07/16 08:29:55;;;;;;;;;;;;;;;16.37;62.22;99141.50;5075857;28;4995;-83
2023/07/16 08:32:22;;;;;;;;;;;;;;;16.37;62.33;99143.41;5082234;28;4793;-81
2023/07/16 08:34:48;;;;;;;;;;;;;;;16.36;62.26;99142.63;5078030;28;4971;-80
2023/07/16 08:37:18;;;;;;;;;;;;;;;16.36;62.40;99145.34;5064091;28;5192;-82
2023/07/16 08:39:44;;;;;;;;;;;;;;;16.36;62.34;99142.63;5083250;28;5610;-80
2023/07/16 08:42:11;;;;;;;;;;;;;;;16.37;62.39;99135.28;5081893;28;5207;-84
2023/07/16 08:44:37;;;;;;;;;;;;;;;16.37;62.48;99137.97;5082677;28;5216;-81
2023/07/16 08:47:04;;;;;;;;;;;;;;;16.36;62.38;99131.75;5082093;28;5255;-79
2023/07/16 08:49:31;;;;;;;;;;;;;;;16.37;62.41;99140.69;5079362;28;5108;-79
2023/07/16 08:51:58;;;;;;;;;;;;;;;16.34;62.58;99132.03;5097513;28;5093;-81
2023/07/16 08:54:25;;;;;;;;;;;;;;;16.38;62.59;99129.53;5084705;28;5224;-81
2023/07/16 08:56:52;;;;;;;;;;;;;;;16.37;62.65;99137.97;5082299;28;5224;-82
2023/07/16 08:59:19;;;;;;;;;;;;;;;16.35;62.73;99128.22;5064788;28;5275;-84
2023/07/16 09:01:45;;;;;;;;;;;;;;;16.35;62.71;99130.94;5083969;28;5076;-83
2023/07/16 09:04:12;;;;;;;;;;;;;;;16.48;62.36;99123.97;5067573;28;5175;-84
2023/07/16 09:06:38;;;;;;;;;;;;;;;16.39;62.61;99122.22;5068080;28;5227;-82
2023/07/16 09:09:05;;;;;;;;;;;;;;;16.39;62.74;99133.88;5089452;28;5019;-85
2023/07/16 09:11:31;;;;;;;;;;;;;;;16.37;62.90;99137.97;5074656;28;5255;-85
2023/07/16 09:13:58;;;;;;;;;;;;;;;16.35;62.95;99146.41;5106059;28;5149;-82
2023/07/16 09:16:24;;;;;;;;;;;;;;;16.34;62.96;99145.59;5106287;28;4943;-83
2023/07/16 09:18:51;;;;;;;;;;;;;;;16.37;62.91;99144.22;5106691;27;5132;-84
2023/07/16 09:21:18;;;;;;;;;;;;;;;16.35;63.16;99140.97;5105081;27;5367;-84
2023/07/16 09:23:44;;;;;;;;;;;;;;;16.37;63.10;99146.13;5106650;27;5139;-81
2023/07/16 09:26:11;;;;;;;;;;;;;;;16.35;63.09;99144.53;5105918;28;5353;-81
2023/07/16 09:28:37;;;;;;;;;;;;;;;16.34;63.25;99144.81;5104254;28;4927;-85
2023/07/16 09:31:04;;;;;;;;;;;;;;;16.36;63.22;99137.19;5086219;28;5272;-83
2023/07/16 09:33:30;;;;;;;;;;;;;;;16.37;63.27;99137.97;5088734;28;5333;-84
2023/07/16 09:35:57;;;;;;;;;;;;;;;16.36;63.33;99145.34;5102642;28;5437;-81
2023/07/16 09:38:24;;;;;;;;;;;;;;;16.36;63.32;99142.63;5106350;27;5086;-84
2023/07/16 09:40:50;;;;;;;;;;;;;;;16.37;63.46;99129.84;5085244;28;5221;-82
2023/07/16 09:43:17;;;;;;;;;;;;;;;16.35;63.43;99133.66;5106738;27;5329;-80
2023/07/16 09:45:44;;;;;;;;;;;;;;;16.37;63.43;99132.56;5103052;28;5017;-83
2023/07/16 09:48:10;;;;;;;;;;;;;;;16.37;63.49;99143.41;5102895;28;5303;-80
2023/07/16 09:50:37;;;;;;;;;;;;;;;16.36;63.51;99150.75;5094165;27;5754;-76
2023/07/16 09:53:03;;;;;;;;;;;;;;;16.38;63.60;99142.31;5092703;28;5867;-77
2023/07/16 09:55:30;;;;;;;;;;;;;;;16.38;63.60;99140.41;5096304;27;5244;-76
2023/07/16 09:57:57;;;;;;;;;;;;;;;16.38;63.48;99150.47;5091934;27;5281;-77
2023/07/16 10:00:23;;;;;;;;;;;;;;;16.39;63.65;99135.78;5097851;27;5266;-76
2023/07/16 10:02:50;;;;;;;;;;;;;;;16.40;63.61;99145.56;5096738;28;5264;-79
2023/07/16 10:05:16;;;;;;;;;;;;;;;16.41;63.63;99139.00;5099634;28;5430;-76
2023/07/16 10:07:43;;;;;;;;;;;;;;;16.40;63.74;99145.56;5096676;28;5353;-78
2023/07/16 10:10:09;;;;;;;;;;;;;;;16.46;66.17;99144.38;5081080;28;5145;-77
2023/07/16 10:12:36;;;;;;;;;;;;;;;16.48;64.37;99140.28;5097386;27;5693;-75
2023/07/16 10:15:03;;;;;;;;;;;;;;;16.49;64.29;99149.22;5095986;28;6183;-77
2023/07/16 10:17:30;;;;;;;;;;;;;;;16.43;64.57;99145.75;5091150;27;5979;-80
2023/07/16 10:19:57;;;;;;;;;;;;;;;16.43;64.76;99139.53;5088830;27;5706;-76
2023/07/16 10:22:23;;;;;;;;;;;;;;;16.42;64.87;99146.88;5074982;28;5772;-77
2023/07/16 10:24:50;;;;;;;;;;;;;;;16.42;64.97;99146.88;5103677;27;6610;-76
2023/07/16 10:27:17;;;;;;;;;;;;;;;16.43;64.79;99144.97;5092972;27;5486;-76
2023/07/16 10:29:43;;;;;;;;;;;;;;;16.42;64.96;99138.72;5089076;27;5280;-76
2023/07/16 10:32:10;;;;;;;;;;;;;;;16.43;65.04;99155.84;5090626;27;5291;-78
2023/07/16 10:34:37;;;;;;;;;;;;;;;16.44;64.95;99149.28;5088471;27;5226;-76
2023/07/16 10:37:04;;;;;;;;;;;;;;;16.44;64.99;99143.84;5067845;27;5798;-75
2023/07/16 10:39:31;;;;;;;;;;;;;;;16.45;65.01;99148.22;5090533;27;5057;-75
2023/07/16 10:41:58;;;;;;;;;;;;;;;16.45;64.96;99148.22;5083511;27;5389;-76
2023/07/16 10:44:25;;;;;;;;;;;;;;;16.45;64.99;99150.94;5090742;27;5672;-77
2023/07/16 10:47:01;;;;;;;;;;;;;;;16.44;65.01;99150.13;5072277;28;5086;-75
2023/07/16 10:49:28;;;;;;;;;;;;;;;16.46;65.12;99149.81;5091001;27;5388;-75
2023/07/16 10:51:54;;;;;;;;;;;;;;;16.46;65.01;99153.34;5090464;27;5200;-76
2023/07/16 10:54:22;;;;;;;;;;;;;;;16.46;65.02;99147.09;5093160;27;5734;-77
2023/07/16 10:56:50;;;;;;;;;;;;;;;16.47;65.07;99154.97;5088934;28;5561;-76
2023/07/16 10:59:17;;;;;;;;;;;;;;;16.47;65.07;99154.97;5091031;27;5123;-76
2023/07/16 11:01:44;;;;;;;;;;;;;;;16.47;65.02;99143.25;5087838;27;5143;-77
2023/07/16 11:04:10;;;;;;;;;;;;;;;16.48;64.99;99156.56;5091937;27;6044;-76
2023/07/16 11:06:37;;;;;;;;;;;;;;;16.49;65.12;99160.09;5087509;27;5139;-76
2023/07/16 11:09:03;;;;;;;;;;;;;;;16.49;65.18;99165.53;5089566;27;5535;-76
2023/07/16 11:11:30;;;;;;;;;;;;;;;16.49;65.11;99163.63;5090627;27;6101;-76
2023/07/16 11:13:57;;;;;;;;;;;;;;;16.49;65.21;99155.47;5088575;27;5243;-78
2023/07/16 11:16:23;;;;;;;;;;;;;;;16.50;65.20;99161.69;5085941;28;5211;-78
2023/07/16 11:18:50;;;;;;;;;;;;;;;16.49;65.24;99150.03;5089947;28;5842;-78
2023/07/16 11:21:16;;;;;;;;;;;;;;;16.50;65.18;99162.53;5089944;28;5330;-76
2023/07/16 11:23:43;;;;;;;;;;;;;;;16.50;65.33;99159.81;5102942;27;5079;-77
2023/07/16 11:26:09;;;;;;;;;;;;;;;16.50;65.25;99154.38;5091221;28;4914;-78
2023/07/16 11:28:36;;;;;;;;;;;;;;;16.51;65.35;99149.75;5088663;28;5879;-76
2023/07/16 11:31:02;;;;;;;;;;;;;;;16.51;65.37;99149.75;5092570;28;5053;-75
2023/07/16 11:33:29;;;;;;;;;;;;;;;16.52;65.29;99168.47;5088515;27;5578;-77
2023/07/16 11:35:56;;;;;;;;;;;;;;;16.52;65.33;99145.94;5071271;28;6125;-78
2023/07/16 11:38:22;;;;;;;;;;;;;;;16.53;65.32;99144.81;5072907;28;5855;-75
2023/07/16 11:40:49;;;;;;;;;;;;;;;16.53;65.45;99137.50;5089470;28;5040;-78
2023/07/16 11:43:15;;;;;;;;;;;;;;;16.53;65.41;99148.38;5070822;27;4964;-77
2023/07/16 11:45:42;;;;;;;;;;;;;;;16.54;65.50;99141.00;5073361;28;5151;-76
2023/07/16 11:48:08;;;;;;;;;;;;;;;16.53;65.46;99151.09;5094046;28;5230;-78
2023/07/16 11:50:35;;;;;;;;;;;;;;;16.54;65.43;99146.44;5070427;28;5140;-74
2023/07/16 11:53:01;;;;;;;;;;;;;;;16.54;65.39;99162.75;5090495;28;4778;-76
2023/07/16 11:55:28;;;;;;;;;;;;;;;16.54;65.57;99141.81;5089092;28;5082;-76
2023/07/16 11:57:56;;;;;;;;;;;;;;;16.54;65.59;99149.97;5088185;28;6098;-75
2023/07/16 12:00:23;;;;;;;;;;;;;;;16.54;65.64;99144.53;5068601;28;5993;-77
2023/07/16 12:02:51;;;;;;;;;;;;;;;16.55;65.82;99140.69;5089544;28;5083;-75
2023/07/16 12:05:18;;;;;;;;;;;;;;;16.55;65.75;99148.84;5087022;28;5022;-75
2023/07/16 12:07:45;;;;;;;;;;;;;;;16.55;65.68;99140.69;5089485;28;5648;-76
2023/07/16 12:10:11;;;;;;;;;;;;;;;16.56;65.65;99144.25;5069377;28;5242;-77
2023/07/16 12:12:38;;;;;;;;;;;;;;;16.56;65.74;99138.81;5091369;28;5569;-77
2023/07/16 12:15:05;;;;;;;;;;;;;;;16.57;65.79;99137.72;5068878;28;5372;-74
2023/07/16 12:17:31;;;;;;;;;;;;;;;16.56;65.81;99147.78;5088931;28;5582;-76
2023/07/16 12:19:58;;;;;;;;;;;;;;;16.56;65.73;99172.22;5090778;27;5724;-75
2023/07/16 12:22:29;;;;;;;;;;;;;;;16.33;65.62;99141.28;5096795;27;5451;-77
2023/07/16 12:24:56;;;;;;;;;;;;;;;16.57;65.83;99171.13;5078720;28;5640;-76
2023/07/16 12:27:22;;;;;;;;;;;;;;;16.57;65.78;99167.59;5079466;28;5826;-76
2023/07/16 12:29:52;;;;;;;;;;;;;;;16.57;65.77;99178.47;5100172;27;5634;-77
2023/07/16 12:32:20;;;;;;;;;;;;;;;16.57;65.99;99160.25;5096067;28;5181;-77
2023/07/16 12:34:46;;;;;;;;;;;;;;;16.57;66.00;99164.88;5097354;28;5249;-75
2023/07/16 12:37:13;;;;;;;;;;;;;;;16.57;65.88;99176.56;5096786;28;5616;-75
2023/07/16 12:39:39;;;;;;;;;;;;;;;16.58;65.84;99167.28;5079220;28;5144;-76
2023/07/16 12:42:06;;;;;;;;;;;;;;;16.60;66.01;99171.66;5099685;28;5105;-77
2023/07/16 12:44:32;;;;;;;;;;;;;;;16.58;66.01;99155.63;5081227;28;5826;-74
2023/07/16 12:46:59;;;;;;;;;;;;;;;16.58;66.09;99164.56;5100681;27;5111;-77
2023/07/16 12:49:25;;;;;;;;;;;;;;;16.58;66.07;99166.50;5091734;27;5689;-74
2023/07/16 12:51:52;;;;;;;;;;;;;;;16.59;66.16;99168.13;5090004;27;6077;-77
2023/07/16 12:54:19;;;;;;;;;;;;;;;16.59;66.12;99170.84;5092959;27;5068;-77
2023/07/16 12:56:45;;;;;;;;;;;;;;;16.58;65.91;99159.13;5074060;27;4980;-77
2023/07/16 12:59:12;;;;;;;;;;;;;;;16.60;66.20;99166.22;5070893;28;5296;-76
2023/07/16 13:01:39;;;;;;;;;;;;;;;16.59;65.98;99159.97;5090405;27;5586;-76